createdAt,value
2023-03-08T00:01:26.111Z,99714.16
2023-03-08T00:03:58.050Z,99707.78
2023-03-08T00:06:28.251Z,99715.69
2023-03-08T00:08:58.001Z,99712.50
2023-03-08T00:11:26.798Z,99716.44
2023-03-08T00:13:56.133Z,99720.16
2023-03-08T00:16:25.473Z,99713.81
2023-03-08T00:18:55.443Z,99710.63
2023-03-08T00:21:24.114Z,99704.13
2023-03-08T00:23:54.975Z,99706.59
2023-03-08T00:26:23.720Z,99711.63
2023-03-08T00:28:53.010Z,99714.34
2023-03-08T00:31:21.924Z,99721.19
2023-03-08T00:33:55.792Z,99722.00
2023-03-08T00:36:24.687Z,99704.94
2023-03-08T00:38:53.471Z,99706.13
2023-03-08T00:41:22.320Z,99714.03
2023-03-08T00:43:51.349Z,99712.91
2023-03-08T00:46:19.979Z,99719.94
2023-03-08T00:48:48.977Z,99713.53
2023-03-08T00:51:20.978Z,99718.13
2023-03-08T00:53:49.879Z,99713.88
2023-03-08T00:56:18.875Z,99716.84
2023-03-08T00:58:47.422Z,99713.06
2023-03-08T01:01:18.122Z,99703.16
2023-03-08T01:03:46.784Z,99700.78
2023-03-08T01:06:16.855Z,99700.28
2023-03-08T01:08:47.154Z,99696.66
2023-03-08T01:11:21.005Z,99702.34
2023-03-08T01:13:50.533Z,99693.81
2023-03-08T01:16:21.626Z,99686.16
2023-03-08T01:18:50.186Z,99690.72
2023-03-08T01:21:19.260Z,99683.94
2023-03-08T01:23:49.784Z,99681.69
2023-03-08T01:26:20.227Z,99671.81
2023-03-08T01:28:48.802Z,99678.59
2023-03-08T01:31:18.771Z,99678.59
2023-03-08T01:33:47.936Z,99673.44
2023-03-08T01:36:18.918Z,99669.50
2023-03-08T01:38:49.300Z,99665.00
2023-03-08T01:41:20.370Z,99668.09
2023-03-08T01:43:49.373Z,99657.97
2023-03-08T01:46:21.563Z,99665.47
2023-03-08T01:48:54.908Z,99654.03
2023-03-08T01:51:31.911Z,99644.38
2023-03-08T01:54:06.450Z,99651.28
2023-03-08T01:56:36.699Z,99641.97
2023-03-08T01:59:06.009Z,99633.97
2023-03-08T02:01:36.009Z,99641.72
2023-03-08T02:04:05.098Z,99642.09
2023-03-08T02:06:33.769Z,99620.88
2023-03-08T02:09:05.420Z,99615.28
2023-03-08T02:11:35.202Z,99611.47
2023-03-08T02:14:04.399Z,99606.59
2023-03-08T02:16:33.062Z,99601.84
2023-03-08T02:19:03.938Z,99596.06
2023-03-08T02:21:34.129Z,99589.63
2023-03-08T02:24:08.589Z,99588.59
2023-03-08T02:26:39.181Z,99597.81
2023-03-08T02:29:08.228Z,99596.75
2023-03-08T02:31:36.859Z,99596.69
2023-03-08T02:34:05.421Z,99607.81
2023-03-08T02:36:34.024Z,99603.50
2023-03-08T02:39:02.639Z,99600.59
2023-03-08T02:41:32.569Z,99602.06
2023-03-08T02:44:01.107Z,99595.22
2023-03-08T02:46:29.975Z,99590.09
2023-03-08T02:48:58.581Z,99579.19
2023-03-08T02:51:27.212Z,99571.59
2023-03-08T02:53:56.081Z,99579.63
2023-03-08T02:56:24.805Z,99577.00
2023-03-08T02:58:54.928Z,99576.47
2023-03-08T03:01:24.154Z,99581.94
2023-03-08T03:03:55.733Z,99575.31
2023-03-08T03:06:24.553Z,99574.16
2023-03-08T03:08:53.117Z,99576.88
2023-03-08T03:11:23.818Z,99580.44
2023-03-08T03:13:58.697Z,99575.00
2023-03-08T03:16:28.146Z,99568.91
2023-03-08T03:18:57.631Z,99559.09
2023-03-08T03:21:26.667Z,99551.72
2023-03-08T03:23:56.697Z,99561.00
2023-03-08T03:26:26.232Z,99560.34
2023-03-08T03:28:59.410Z,99561.03
2023-03-08T03:31:28.665Z,99558.47
2023-03-08T03:33:57.240Z,99543.81
2023-03-08T03:36:26.143Z,99545.25
2023-03-08T03:38:54.727Z,99531.97
2023-03-08T03:41:24.796Z,99533.91
2023-03-08T03:43:54.032Z,99532.94
2023-03-08T03:46:24.073Z,99528.84
2023-03-08T03:48:52.738Z,99522.72
2023-03-08T03:51:22.921Z,99523.31
2023-03-08T03:53:51.719Z,99526.09
2023-03-08T03:56:22.744Z,99529.38
2023-03-08T03:58:51.708Z,99515.72
2023-03-08T04:01:22.362Z,99517.13
2023-03-08T04:03:53.432Z,99513.59
2023-03-08T04:06:23.968Z,99504.50
2023-03-08T04:08:54.573Z,99498.16
2023-03-08T04:11:25.933Z,99498.53
2023-03-08T04:13:54.645Z,99501.94
2023-03-08T04:16:27.416Z,99496.88
2023-03-08T04:19:00.248Z,99489.44
2023-03-08T04:21:29.564Z,99485.88
2023-03-08T04:24:00.578Z,99479.81
2023-03-08T04:26:29.516Z,99467.53
2023-03-08T04:28:58.396Z,99469.97
2023-03-08T04:31:29.610Z,99473.28
2023-03-08T04:33:59.564Z,99470.97
2023-03-08T04:36:28.630Z,99471.31
2023-03-08T04:38:57.466Z,99470.63
2023-03-08T04:41:26.738Z,99461.03
2023-03-08T04:43:57.099Z,99458.75
2023-03-08T04:46:27.727Z,99455.03
2023-03-08T04:48:57.987Z,99457.94
2023-03-08T04:51:27.829Z,99452.81
2023-03-08T04:53:56.400Z,99446.41
2023-03-08T04:56:24.982Z,99435.81
2023-03-08T04:58:53.532Z,99436.31
2023-03-08T05:01:24.112Z,99428.22
2023-03-08T05:03:54.176Z,99423.22
2023-03-08T05:06:26.731Z,99420.06
2023-03-08T05:08:55.404Z,99420.56
2023-03-08T05:11:25.598Z,99412.31
2023-03-08T05:13:56.568Z,99413.75
2023-03-08T05:16:26.135Z,99405.22
2023-03-08T05:18:55.119Z,99405.16
2023-03-08T05:21:25.296Z,99403.81
2023-03-08T05:23:53.863Z,99401.66
2023-03-08T05:26:22.561Z,99404.50
2023-03-08T05:28:51.110Z,99396.84
2023-03-08T05:31:22.481Z,99388.44
2023-03-08T05:33:53.803Z,99387.69
2023-03-08T05:36:24.189Z,99379.19
2023-03-08T05:38:55.401Z,99375.06
2023-03-08T05:41:23.978Z,99376.22
2023-03-08T05:43:52.576Z,99372.47
2023-03-08T05:46:21.910Z,99360.78
2023-03-08T05:48:50.620Z,99352.06
2023-03-08T05:51:20.520Z,99348.00
2023-03-08T05:53:50.441Z,99342.44
2023-03-08T05:56:20.591Z,99333.97
2023-03-08T05:58:49.647Z,99336.13
2023-03-08T06:01:20.270Z,99336.72
2023-03-08T06:03:50.365Z,99331.28
2023-03-08T06:06:19.510Z,99326.09
2023-03-08T06:08:49.924Z,99324.94
2023-03-08T06:11:18.708Z,99327.19
2023-03-08T06:13:47.393Z,99316.06
2023-03-08T06:16:16.644Z,99310.59
2023-03-08T06:18:45.792Z,99309.22
2023-03-08T06:21:16.435Z,99293.50
2023-03-08T06:23:45.962Z,99291.94
2023-03-08T06:26:16.604Z,99286.69
2023-03-08T06:28:45.713Z,99281.69
2023-03-08T06:31:16.447Z,99274.09
2023-03-08T06:33:45.098Z,99268.56
2023-03-08T06:36:15.813Z,99260.00
2023-03-08T06:38:44.971Z,99262.25
2023-03-08T06:41:16.723Z,99253.06
2023-03-08T06:43:45.471Z,99255.06
2023-03-08T06:46:17.048Z,99256.88
2023-03-08T06:48:46.363Z,99258.00
2023-03-08T06:51:15.164Z,99254.66
2023-03-08T06:53:43.733Z,99253.03
2023-03-08T06:56:15.701Z,99247.75
2023-03-08T06:58:45.802Z,99244.44
2023-03-08T07:01:15.088Z,99252.84
2023-03-08T07:03:45.431Z,99236.53
2023-03-08T07:06:14.164Z,99239.50
2023-03-08T07:08:43.254Z,99232.00
2023-03-08T07:11:11.998Z,99238.06
2023-03-08T07:13:40.662Z,99234.97
2023-03-08T07:16:13.238Z,99235.09
2023-03-08T07:18:42.626Z,99233.22
2023-03-08T07:21:11.371Z,99223.28
2023-03-08T07:23:40.118Z,99229.22
2023-03-08T07:26:09.454Z,99225.19
2023-03-08T07:28:38.218Z,99230.63
2023-03-08T07:31:07.017Z,99227.78
2023-03-08T07:33:36.967Z,99224.75
2023-03-08T07:36:06.135Z,99226.78
2023-03-08T07:38:34.733Z,99237.41
2023-03-08T07:41:03.374Z,99234.66
2023-03-08T07:43:31.990Z,99223.31
2023-03-08T07:46:03.500Z,99218.78
2023-03-08T07:48:33.222Z,99216.94
2023-03-08T07:51:09.571Z,99200.53
2023-03-08T07:53:38.662Z,99187.94
2023-03-08T07:56:08.190Z,99192.59
2023-03-08T07:58:36.813Z,99189.72
2023-03-08T08:01:10.371Z,99190.31
2023-03-08T08:03:39.573Z,99183.78
2023-03-08T08:06:10.297Z,99185.41
2023-03-08T08:08:38.958Z,99171.06
2023-03-08T08:11:13.114Z,99171.25
2023-03-08T08:13:41.708Z,99164.31
2023-03-08T08:16:10.694Z,99164.16
2023-03-08T08:18:39.317Z,99156.66
2023-03-08T08:21:11.463Z,99146.63
2023-03-08T08:23:41.308Z,99141.25
2023-03-08T08:26:12.043Z,99139.88
2023-03-08T08:28:42.388Z,99127.28
2023-03-08T08:31:14.374Z,99132.09
2023-03-08T08:33:43.174Z,99125.16
2023-03-08T08:36:15.569Z,99114.59
2023-03-08T08:38:46.197Z,99114.44
2023-03-08T08:41:16.731Z,99111.44
2023-03-08T08:43:46.572Z,99105.31
2023-03-08T08:46:16.937Z,99094.72
2023-03-08T08:48:45.612Z,99095.75
2023-03-08T08:51:15.958Z,99090.69
2023-03-08T08:53:45.217Z,99100.69
2023-03-08T08:56:26.072Z,99096.22
2023-03-08T08:58:56.082Z,99084.19
2023-03-08T09:01:26.564Z,99071.06
2023-03-08T09:03:55.462Z,99075.34
2023-03-08T09:06:26.620Z,99065.28
2023-03-08T09:08:57.217Z,99056.63
2023-03-08T09:11:27.076Z,99054.72
2023-03-08T09:13:56.000Z,99056.13
2023-03-08T09:16:26.832Z,99057.78
2023-03-08T09:18:56.440Z,99047.81
2023-03-08T09:21:28.185Z,99058.94
2023-03-08T09:23:57.213Z,99048.94
2023-03-08T09:26:25.758Z,99041.03
2023-03-08T09:28:54.340Z,99053.94
2023-03-08T09:31:23.974Z,99048.16
2023-03-08T09:33:53.602Z,99042.00
2023-03-08T09:36:22.489Z,99048.03
2023-03-08T09:38:54.138Z,99046.53
2023-03-08T09:41:36.189Z,99038.47
2023-03-08T09:44:17.432Z,99036.31
2023-03-08T09:46:50.258Z,99032.78
2023-03-08T09:49:24.167Z,99020.56
2023-03-08T09:51:59.255Z,99027.69
2023-03-08T09:54:30.357Z,99034.13
2023-03-08T09:56:58.987Z,99031.59
2023-03-08T09:59:32.793Z,99020.56
2023-03-08T10:02:14.164Z,99024.22
2023-03-08T10:05:09.843Z,99024.81
2023-03-08T10:07:51.022Z,99019.66
2023-03-08T10:10:34.657Z,99025.19
2023-03-08T10:13:20.729Z,99016.53
2023-03-08T10:15:53.195Z,99017.66
2023-03-08T10:18:31.063Z,99010.03
2023-03-08T10:21:01.800Z,99001.22
2023-03-08T10:23:32.594Z,99003.16
2023-03-08T10:26:03.455Z,99000.56
2023-03-08T10:28:32.019Z,98989.75
2023-03-08T10:31:04.489Z,98983.25
2023-03-08T10:33:35.785Z,98984.28
2023-03-08T10:36:10.132Z,98977.75
2023-03-08T10:38:39.600Z,98967.59
2023-03-08T10:41:16.381Z,98966.16
2023-03-08T10:43:48.734Z,98965.28
2023-03-08T10:46:19.459Z,98966.03
2023-03-08T10:48:48.784Z,98959.66
2023-03-08T10:51:20.276Z,98953.97
2023-03-08T10:53:56.016Z,98960.63
2023-03-08T10:56:33.638Z,98955.09
2023-03-08T10:59:02.336Z,98953.63
2023-03-08T11:01:33.670Z,98965.78
2023-03-08T11:04:04.736Z,98964.44
2023-03-08T11:06:35.359Z,98971.25
2023-03-08T11:09:05.666Z,98969.44
2023-03-08T11:11:43.986Z,98958.47
2023-03-08T11:14:13.483Z,98960.47
2023-03-08T11:16:56.461Z,98954.09
2023-03-08T11:19:49.281Z,98954.66
2023-03-08T11:22:30.396Z,98958.97
2023-03-08T11:25:15.601Z,98958.03
2023-03-08T11:28:08.292Z,98949.31
2023-03-08T11:30:48.115Z,98944.09
2023-03-08T11:33:51.612Z,98945.63
2023-03-08T11:36:25.931Z,98953.13
2023-03-08T11:38:59.577Z,98948.13
2023-03-08T11:41:38.151Z,98954.63
2023-03-08T11:44:27.297Z,98947.66
2023-03-08T11:47:24.988Z,98947.16
2023-03-08T11:50:06.015Z,98942.56
2023-03-08T11:52:40.799Z,98934.28
2023-03-08T11:55:32.995Z,98947.06
2023-03-08T11:58:11.000Z,98947.25
2023-03-08T12:00:43.043Z,98937.47
2023-03-08T12:03:16.629Z,98943.97
2023-03-08T12:05:50.583Z,98957.88
2023-03-08T12:08:23.952Z,98953.38
2023-03-08T12:10:58.097Z,98953.94
2023-03-08T12:13:33.337Z,98951.56
2023-03-08T12:16:12.160Z,98931.50
2023-03-08T12:18:47.850Z,98925.56
2023-03-08T12:21:25.990Z,98912.25
2023-03-08T12:24:04.009Z,98914.16
2023-03-08T12:26:38.561Z,98907.03
2023-03-08T12:29:11.855Z,98904.50
2023-03-08T12:31:45.937Z,98888.38
2023-03-08T12:34:25.961Z,98895.13
2023-03-08T12:36:55.037Z,98905.75
2023-03-08T12:39:30.013Z,98902.38
2023-03-08T12:42:00.876Z,98902.19
2023-03-08T12:44:31.304Z,98900.88
2023-03-08T12:47:17.275Z,98882.59
2023-03-08T12:49:51.083Z,98878.81
2023-03-08T12:52:31.759Z,98878.25
2023-03-08T12:55:03.130Z,98879.28
2023-03-08T12:57:35.083Z,98887.00
2023-03-08T13:00:09.682Z,98887.81
2023-03-08T13:02:39.650Z,98886.25
2023-03-08T13:05:30.225Z,98885.28
2023-03-08T13:08:25.288Z,98869.66
2023-03-08T13:11:08.360Z,98872.44
2023-03-08T13:13:52.573Z,98872.88
2023-03-08T13:16:30.905Z,98875.00
2023-03-08T13:19:17.742Z,98874.91
2023-03-08T13:21:52.852Z,98877.09
2023-03-08T13:24:41.493Z,98876.06
2023-03-08T13:27:30.169Z,98875.75
2023-03-08T13:30:03.514Z,98873.13
2023-03-08T13:32:33.742Z,98879.19
2023-03-08T13:35:05.987Z,98878.34
2023-03-08T13:37:34.587Z,98879.19
2023-03-08T13:40:07.791Z,98876.09
2023-03-08T13:42:36.410Z,98863.84
2023-03-08T13:45:10.215Z,98845.38
2023-03-08T13:47:41.003Z,98848.88
2023-03-08T13:50:20.581Z,98856.50
2023-03-08T13:52:49.692Z,98852.94
2023-03-08T13:55:21.637Z,98850.31
2023-03-08T13:57:53.863Z,98844.63
2023-03-08T14:00:27.143Z,98845.44
2023-03-08T14:02:58.740Z,98850.72
2023-03-08T14:05:30.609Z,98835.47
2023-03-08T14:08:01.838Z,98838.06
2023-03-08T14:10:38.737Z,98841.16
2023-03-08T14:13:14.926Z,98829.66
2023-03-08T14:15:50.621Z,98825.13
2023-03-08T14:18:23.922Z,98825.75
2023-03-08T14:21:08.657Z,98831.94
2023-03-08T14:23:42.542Z,98838.09
2023-03-08T14:26:26.938Z,98833.91
2023-03-08T14:29:21.741Z,98825.47
2023-03-08T14:31:59.210Z,98823.53
2023-03-08T14:34:29.488Z,98828.53
2023-03-08T14:37:01.841Z,98813.63
2023-03-08T14:39:33.002Z,98809.25
2023-03-08T14:42:12.267Z,98803.47
2023-03-08T14:44:40.896Z,98797.88
2023-03-08T14:47:11.030Z,98805.63
2023-03-08T14:49:39.596Z,98804.97
2023-03-08T14:52:21.415Z,98804.03
2023-03-08T14:54:50.038Z,98802.91
2023-03-08T14:57:21.490Z,98810.63
2023-03-08T14:59:50.974Z,98818.41
2023-03-08T15:02:20.152Z,98819.34
2023-03-08T15:04:48.773Z,98817.34
2023-03-08T15:07:23.547Z,98824.03
2023-03-08T15:09:53.363Z,98820.81
2023-03-08T15:12:21.941Z,98819.97
2023-03-08T15:14:50.512Z,98810.38
2023-03-08T15:17:19.100Z,98814.09
2023-03-08T15:19:47.686Z,98807.69
2023-03-08T15:22:18.638Z,98813.50
2023-03-08T15:24:47.210Z,98811.59
2023-03-08T15:27:17.044Z,98813.31
2023-03-08T15:29:45.575Z,98810.72
2023-03-08T15:32:14.201Z,98816.97
2023-03-08T15:34:42.788Z,98816.59
2023-03-08T15:37:15.139Z,98818.88
2023-03-08T15:39:45.061Z,98816.69
2023-03-08T15:42:13.730Z,98818.69
2023-03-08T15:44:42.276Z,98822.06
2023-03-08T15:47:11.757Z,98815.97
2023-03-08T15:49:40.371Z,98809.88
2023-03-08T15:52:09.073Z,98812.63
2023-03-08T15:54:39.382Z,98817.06
2023-03-08T15:57:09.406Z,98810.09
2023-03-08T15:59:37.952Z,98805.97
2023-03-08T16:02:06.698Z,98809.63
2023-03-08T16:04:35.407Z,98816.06
2023-03-08T16:07:04.049Z,98814.41
2023-03-08T16:09:32.615Z,98810.81
2023-03-08T16:12:01.213Z,98805.84
2023-03-08T16:14:31.339Z,98816.31
2023-03-08T16:17:00.068Z,98815.09
2023-03-08T16:19:31.805Z,98802.50
2023-03-08T16:22:00.415Z,98809.31
2023-03-08T16:24:29.439Z,98801.25
2023-03-08T16:26:59.387Z,98798.00
2023-03-08T16:29:28.129Z,98804.09
2023-03-08T16:31:58.555Z,98813.03
2023-03-08T16:34:27.838Z,98808.31
2023-03-08T16:36:57.836Z,98796.53
2023-03-08T16:39:27.199Z,98800.91
2023-03-08T16:41:55.800Z,98803.94
2023-03-08T16:44:26.249Z,98801.44
2023-03-08T16:46:55.502Z,98802.56
2023-03-08T16:49:28.401Z,98798.03
2023-03-08T16:51:57.520Z,98798.09
2023-03-08T16:54:26.323Z,98789.16
2023-03-08T16:56:54.909Z,98791.16
2023-03-08T16:59:23.502Z,98805.34
2023-03-08T17:01:52.055Z,98807.16
2023-03-08T17:04:22.760Z,98799.00
2023-03-08T17:06:52.693Z,98806.00
2023-03-08T17:09:21.269Z,98799.34
2023-03-08T17:11:49.922Z,98806.59
2023-03-08T17:14:18.503Z,98811.41
2023-03-08T17:16:47.081Z,98800.22
2023-03-08T17:19:15.688Z,98805.50
2023-03-08T17:21:45.179Z,98800.28
2023-03-08T17:24:16.214Z,98796.03
2023-03-08T17:26:46.812Z,98803.66
2023-03-08T17:29:16.425Z,98799.00
2023-03-08T17:31:45.100Z,98796.31
2023-03-08T17:34:13.971Z,98797.78
2023-03-08T17:36:42.660Z,98800.16
2023-03-08T17:39:11.798Z,98802.50
2023-03-08T17:41:42.912Z,98799.88
2023-03-08T17:44:12.039Z,98798.50
2023-03-08T17:46:41.653Z,98801.66
2023-03-08T17:49:12.087Z,98805.13
2023-03-08T17:51:42.571Z,98808.56
2023-03-08T17:54:11.939Z,98804.25
2023-03-08T17:56:42.303Z,98805.22
2023-03-08T17:59:15.823Z,98801.22
2023-03-08T18:01:45.141Z,98798.22
2023-03-08T18:04:13.790Z,98799.16
2023-03-08T18:06:43.954Z,98813.81
2023-03-08T18:09:14.428Z,98805.91
2023-03-08T18:11:44.913Z,98796.75
2023-03-08T18:14:15.385Z,98804.38
2023-03-08T18:16:44.879Z,98797.19
2023-03-08T18:19:13.591Z,98796.81
2023-03-08T18:21:42.329Z,98796.84
2023-03-08T18:24:12.835Z,98793.69
2023-03-08T18:26:41.429Z,98792.66
2023-03-08T18:29:12.546Z,98792.22
2023-03-08T18:31:41.496Z,98797.56
2023-03-08T18:34:10.795Z,98790.19
2023-03-08T18:36:40.586Z,98786.19
2023-03-08T18:39:14.397Z,98787.06
2023-03-08T18:41:43.125Z,98785.34
2023-03-08T18:44:14.390Z,98779.75
2023-03-08T18:46:42.994Z,98780.91
2023-03-08T18:49:13.928Z,98777.44
2023-03-08T18:51:43.996Z,98776.72
2023-03-08T18:54:14.776Z,98769.88
2023-03-08T18:56:43.505Z,98768.13
2023-03-08T18:59:17.042Z,98763.59
2023-03-08T19:01:45.653Z,98772.91
2023-03-08T19:04:14.548Z,98771.50
2023-03-08T19:06:43.191Z,98765.13
2023-03-08T19:09:13.170Z,98768.28
2023-03-08T19:11:42.169Z,98774.22
2023-03-08T19:14:13.792Z,98765.38
2023-03-08T19:16:42.915Z,98768.41
2023-03-08T19:19:13.350Z,98768.91
2023-03-08T19:21:44.182Z,98759.03
2023-03-08T19:24:14.481Z,98749.03
2023-03-08T19:26:46.976Z,98756.84
2023-03-08T19:29:19.036Z,98756.00
2023-03-08T19:31:51.520Z,98766.78
2023-03-08T19:34:21.124Z,98764.13
2023-03-08T19:36:50.249Z,98757.41
2023-03-08T19:39:22.404Z,98754.03
2023-03-08T19:41:52.340Z,98753.94
2023-03-08T19:44:23.370Z,98735.75
2023-03-08T19:46:52.107Z,98745.00
2023-03-08T19:49:22.639Z,98734.47
2023-03-08T19:51:53.072Z,98727.19
2023-03-08T19:54:22.414Z,98741.34
2023-03-08T19:56:52.015Z,98747.03
2023-03-08T19:59:22.531Z,98742.19
2023-03-08T20:01:52.058Z,98747.41
2023-03-08T20:04:21.104Z,98747.53
2023-03-08T20:06:51.194Z,98757.25
2023-03-08T20:09:22.827Z,98750.41
2023-03-08T20:11:53.359Z,98751.72
2023-03-08T20:14:24.283Z,98736.94
2023-03-08T20:16:53.142Z,98740.75
2023-03-08T20:19:22.844Z,98751.97
2023-03-08T20:21:51.556Z,98745.38
2023-03-08T20:24:22.126Z,98734.81
2023-03-08T20:26:51.068Z,98740.00
2023-03-08T20:29:19.855Z,98742.88
2023-03-08T20:31:50.176Z,98737.91
2023-03-08T20:34:19.928Z,98736.50
2023-03-08T20:36:48.548Z,98732.38
2023-03-08T20:39:18.303Z,98730.69
2023-03-08T20:41:46.974Z,98728.16
2023-03-08T20:44:15.574Z,98722.56
2023-03-08T20:46:44.180Z,98724.97
2023-03-08T20:49:16.672Z,98727.06
2023-03-08T20:51:45.340Z,98730.47
2023-03-08T20:54:13.954Z,98739.78
2023-03-08T20:56:42.665Z,98734.47
2023-03-08T20:59:11.301Z,98741.44
2023-03-08T21:01:42.083Z,98737.63
2023-03-08T21:04:10.742Z,98735.84
2023-03-08T21:06:40.742Z,98726.28
2023-03-08T21:09:09.442Z,98726.06
2023-03-08T21:11:38.135Z,98723.13
2023-03-08T21:14:06.731Z,98723.22
2023-03-08T21:16:35.937Z,98713.97
2023-03-08T21:19:06.126Z,98706.91
2023-03-08T21:21:37.234Z,98710.41
2023-03-08T21:24:09.413Z,98703.44
2023-03-08T21:26:38.391Z,98711.09
2023-03-08T21:29:08.428Z,98708.84
2023-03-08T21:31:40.384Z,98695.75
2023-03-08T21:34:09.889Z,98704.94
2023-03-08T21:36:39.497Z,98704.28
2023-03-08T21:39:11.458Z,98698.25
2023-03-08T21:41:42.198Z,98695.66
2023-03-08T21:44:13.254Z,98698.19
2023-03-08T21:46:42.613Z,98693.25
2023-03-08T21:49:17.657Z,98683.75
2023-03-08T21:51:46.311Z,98686.00
2023-03-08T21:54:16.494Z,98671.66
2023-03-08T21:56:45.870Z,98666.91
2023-03-08T21:59:14.930Z,98659.59
2023-03-08T22:01:46.560Z,98668.88
2023-03-08T22:04:15.932Z,98655.75
2023-03-08T22:06:44.604Z,98643.81
2023-03-08T22:09:13.602Z,98646.53
2023-03-08T22:11:43.587Z,98647.53
2023-03-08T22:14:12.779Z,98646.94
2023-03-08T22:16:41.514Z,98643.09
2023-03-08T22:19:12.219Z,98635.59
2023-03-08T22:21:40.883Z,98625.38
2023-03-08T22:24:10.992Z,98625.75
2023-03-08T22:26:39.610Z,98620.47
2023-03-08T22:29:09.536Z,98608.91
2023-03-08T22:31:38.194Z,98607.94
2023-03-08T22:34:07.768Z,98599.13
2023-03-08T22:36:36.475Z,98609.47
2023-03-08T22:39:05.073Z,98607.41
2023-03-08T22:41:33.753Z,98602.50
2023-03-08T22:44:04.072Z,98590.59
2023-03-08T22:46:34.516Z,98581.78
2023-03-08T22:49:04.996Z,98585.84
2023-03-08T22:51:35.667Z,98588.16
2023-03-08T22:54:05.731Z,98598.00
2023-03-08T22:56:34.940Z,98601.44
2023-03-08T22:59:04.365Z,98598.00
2023-03-08T23:01:34.477Z,98600.44
2023-03-08T23:04:08.252Z,98605.16
2023-03-08T23:06:36.977Z,98605.97
2023-03-08T23:09:08.426Z,98599.69
2023-03-08T23:11:38.092Z,98604.44
2023-03-08T23:14:07.062Z,98597.25
2023-03-08T23:16:43.083Z,98597.28
2023-03-08T23:19:14.690Z,98600.28
2023-03-08T23:21:44.609Z,98593.97
2023-03-08T23:24:13.525Z,98602.75
2023-03-08T23:26:43.189Z,98589.78
2023-03-08T23:29:12.007Z,98573.16
2023-03-08T23:31:45.559Z,98591.31
2023-03-08T23:34:14.234Z,98585.72
2023-03-08T23:36:42.827Z,98582.47
2023-03-08T23:39:12.463Z,98571.16
2023-03-08T23:41:42.136Z,98569.78
2023-03-08T23:44:13.046Z,98567.19
2023-03-08T23:46:46.186Z,98576.47
2023-03-08T23:49:16.963Z,98583.59
2023-03-08T23:51:45.659Z,98571.38
2023-03-08T23:54:14.317Z,98586.03
2023-03-08T23:56:44.078Z,98589.19
2023-03-08T23:59:16.253Z,98592.00
